Time;durP1;ratioP1;P1;durP2;ratioP2;P2;SDS_P1;SDS_P2;PMS_P1;PMS_P2;Temp;Humidity;BMP_temperature;BMP_pressure;BME280_temperature;BME280_humidity;BME280_pressure;Samples;Min_cycle;Max_cycle;Signal;HPM_P1;HPM_P2
2021/04/02 00:00:20;;;;;;;;;;;19.70;58.20;;;;;;5045567;28;19948;-75
2021/04/02 00:02:46;;;;;;;;;;;19.70;58.20;;;;;;5034026;28;19915;-76
2021/04/02 00:05:20;;;;;;;;;;;19.70;58.20;;;;;;5052530;28;20000;-76
2021/04/02 00:07:51;;;;;;;;;;;19.70;58.20;;;;;;5041052;28;19988;-77
2021/04/02 00:10:19;;;;;;;;;;;19.70;58.20;;;;;;5046826;28;19913;-77
2021/04/02 00:12:45;;;;;;;;;;;19.70;58.20;;;;;;5035063;28;19909;-75
2021/04/02 00:15:16;;;;;;;;;;;19.70;58.20;;;;;;5028881;28;20407;-75
2021/04/02 00:17:41;;;;;;;;;;;19.70;58.20;;;;;;5025581;28;20003;-75
2021/04/02 00:20:08;;;;;;;;;;;19.70;58.20;;;;;;5033207;28;20409;-75
2021/04/02 00:22:34;;;;;;;;;;;19.70;58.30;;;;;;5031670;28;19909;-75
2021/04/02 00:24:59;;;;;;;;;;;19.70;58.30;;;;;;5045559;28;20003;-75
2021/04/02 00:27:25;;;;;;;;;;;19.70;58.30;;;;;;5049499;28;20331;-75
2021/04/02 00:29:50;;;;;;;;;;;19.70;58.20;;;;;;5043520;28;19956;-75
2021/04/02 00:32:16;;;;;;;;;;;19.70;58.30;;;;;;5045982;28;19921;-75
2021/04/02 00:34:41;;;;;;;;;;;19.70;58.30;;;;;;5044926;28;19916;-75
2021/04/02 00:37:07;;;;;;;;;;;19.70;58.30;;;;;;5050737;28;20374;-75
2021/04/02 00:39:32;;;;;;;;;;;19.70;58.30;;;;;;5046956;28;20003;-75
2021/04/02 00:42:04;;;;;;;;;;;19.70;58.30;;;;;;5028100;28;19967;-74
2021/04/02 00:44:30;;;;;;;;;;;19.70;58.30;;;;;;5068203;28;19920;-75
2021/04/02 00:46:56;;;;;;;;;;;19.70;58.30;;;;;;5031540;28;19954;-74
2021/04/02 00:49:21;;;;;;;;;;;19.60;58.30;;;;;;5028644;28;19909;-77
2021/04/02 00:51:49;;;;;;;;;;;19.70;58.30;;;;;;5048242;28;20358;-77
2021/04/02 00:54:15;;;;;;;;;;;19.70;58.40;;;;;;5046985;28;20031;-75
2021/04/02 00:56:40;;;;;;;;;;;19.60;58.30;;;;;;5029187;28;19995;-75
2021/04/02 00:59:08;;;;;;;;;;;19.70;58.40;;;;;;5035682;28;19924;-76
2021/04/02 01:01:34;;;;;;;;;;;19.70;58.40;;;;;;5031178;28;19912;-74
2021/04/02 01:03:59;;;;;;;;;;;19.70;58.40;;;;;;5024163;28;20381;-75
2021/04/02 01:06:26;;;;;;;;;;;19.60;58.40;;;;;;5040959;28;19923;-75
2021/04/02 01:08:52;;;;;;;;;;;19.70;58.40;;;;;;5034729;28;19913;-75
2021/04/02 01:11:18;;;;;;;;;;;19.70;58.40;;;;;;5033133;28;19920;-76
2021/04/02 01:13:45;;;;;;;;;;;19.70;58.40;;;;;;5032647;28;19943;-75
2021/04/02 01:16:15;;;;;;;;;;;19.60;58.40;;;;;;5051850;28;19923;-75
2021/04/02 01:18:41;;;;;;;;;;;19.60;58.40;;;;;;5044888;28;19925;-75
2021/04/02 01:21:10;;;;;;;;;;;19.60;58.40;;;;;;5058120;28;19995;-75
2021/04/02 01:23:45;;;;;;;;;;;19.60;58.40;;;;;;5028563;28;20440;-75
2021/04/02 01:26:20;;;;;;;;;;;19.60;58.40;;;;;;5061981;28;20343;-74
2021/04/02 01:29:04;;;;;;;;;;;19.60;58.50;;;;;;5053760;28;19912;-75
2021/04/02 01:31:30;;;;;;;;;;;19.70;58.50;;;;;;5038636;28;19913;-75
2021/04/02 01:33:57;;;;;;;;;;;19.60;58.50;;;;;;5019196;28;20300;-74
2021/04/02 01:36:23;;;;;;;;;;;19.60;58.50;;;;;;5033652;28;20318;-75
2021/04/02 01:38:49;;;;;;;;;;;19.60;58.50;;;;;;5046465;28;20116;-75
2021/04/02 01:41:15;;;;;;;;;;;19.60;58.50;;;;;;5034052;28;20324;-75
2021/04/02 01:43:45;;;;;;;;;;;19.70;58.50;;;;;;5046380;28;19925;-75
2021/04/02 01:46:12;;;;;;;;;;;19.60;58.50;;;;;;5033624;28;20269;-76
2021/04/02 01:48:40;;;;;;;;;;;19.60;58.50;;;;;;5047767;28;20035;-75
2021/04/02 01:51:06;;;;;;;;;;;19.60;58.50;;;;;;5049983;28;20363;-76
2021/04/02 01:53:34;;;;;;;;;;;19.60;58.50;;;;;;5035860;28;19913;-76
2021/04/02 01:56:01;;;;;;;;;;;19.60;58.50;;;;;;5042935;28;19952;-75
2021/04/02 01:58:27;;;;;;;;;;;19.60;58.50;;;;;;5044447;28;19916;-75
2021/04/02 02:00:55;;;;;;;;;;;19.60;58.50;;;;;;5046548;28;20011;-75
2021/04/02 02:03:23;;;;;;;;;;;19.60;58.50;;;;;;5046748;28;19917;-76
2021/04/02 02:05:51;;;;;;;;;;;19.60;58.60;;;;;;5034799;28;19959;-75
2021/04/02 02:08:18;;;;;;;;;;;19.60;58.60;;;;;;5030858;28;20326;-76
2021/04/02 02:10:44;;;;;;;;;;;19.60;58.60;;;;;;5041052;28;19968;-75
2021/04/02 02:13:10;;;;;;;;;;;19.60;58.60;;;;;;5039564;28;19962;-76
2021/04/02 02:15:37;;;;;;;;;;;19.60;58.60;;;;;;5037175;28;19917;-75
2021/04/02 02:18:05;;;;;;;;;;;19.60;58.60;;;;;;5054710;28;20022;-75
2021/04/02 02:20:31;;;;;;;;;;;19.60;58.60;;;;;;5033708;28;19913;-75
2021/04/02 02:22:57;;;;;;;;;;;19.60;58.60;;;;;;5049177;28;19913;-74
2021/04/02 02:25:24;;;;;;;;;;;19.60;58.60;;;;;;5052501;28;19913;-75
2021/04/02 02:27:50;;;;;;;;;;;19.60;58.60;;;;;;5027263;28;19917;-75
2021/04/02 02:30:18;;;;;;;;;;;19.60;58.60;;;;;;5051799;28;19971;-76
2021/04/02 02:32:43;;;;;;;;;;;19.60;58.60;;;;;;5031653;28;19920;-75
2021/04/02 02:35:09;;;;;;;;;;;19.60;58.60;;;;;;5033089;28;19917;-75
2021/04/02 02:37:35;;;;;;;;;;;19.60;58.60;;;;;;5029407;28;19967;-75
2021/04/02 02:40:04;;;;;;;;;;;19.60;58.60;;;;;;5049089;28;20385;-75
2021/04/02 02:42:30;;;;;;;;;;;19.60;58.70;;;;;;5051877;28;19927;-75
2021/04/02 02:44:55;;;;;;;;;;;19.50;58.70;;;;;;5036719;28;20358;-75
2021/04/02 02:47:21;;;;;;;;;;;19.60;58.70;;;;;;5055178;28;19912;-76
2021/04/02 02:49:48;;;;;;;;;;;19.60;58.60;;;;;;5035151;28;19917;-75
2021/04/02 02:52:13;;;;;;;;;;;19.60;58.70;;;;;;5054821;28;19956;-75
2021/04/02 02:54:40;;;;;;;;;;;19.60;58.70;;;;;;5033751;28;19952;-76
2021/04/02 02:57:06;;;;;;;;;;;19.60;58.70;;;;;;5054614;28;20015;-75
2021/04/02 02:59:32;;;;;;;;;;;19.60;58.70;;;;;;5036984;28;19963;-76
2021/04/02 03:01:58;;;;;;;;;;;19.50;58.70;;;;;;5053606;28;20305;-75
2021/04/02 03:04:25;;;;;;;;;;;19.50;58.70;;;;;;5052219;28;19913;-75
2021/04/02 03:06:51;;;;;;;;;;;19.60;58.70;;;;;;5037294;28;20007;-76
2021/04/02 03:09:17;;;;;;;;;;;19.50;58.70;;;;;;5051594;28;20359;-77
2021/04/02 03:11:44;;;;;;;;;;;19.50;58.70;;;;;;5033842;28;19920;-75
2021/04/02 03:14:10;;;;;;;;;;;19.50;58.70;;;;;;5069440;28;20361;-75
2021/04/02 03:16:40;;;;;;;;;;;19.50;58.70;;;;;;5046220;28;20278;-76
2021/04/02 03:19:06;;;;;;;;;;;19.50;58.70;;;;;;5040171;28;19921;-75
2021/04/02 03:21:32;;;;;;;;;;;19.50;58.80;;;;;;5048545;28;19913;-76
2021/04/02 03:23:58;;;;;;;;;;;19.50;58.80;;;;;;5047449;28;20386;-75
2021/04/02 03:26:24;;;;;;;;;;;19.50;58.80;;;;;;5053635;28;20373;-76
2021/04/02 03:28:50;;;;;;;;;;;19.60;58.80;;;;;;5065985;28;19920;-75
2021/04/02 03:31:16;;;;;;;;;;;19.60;58.80;;;;;;5043901;28;19920;-77
2021/04/02 03:33:49;;;;;;;;;;;19.50;58.80;;;;;;5044995;28;19921;-76
2021/04/02 03:36:16;;;;;;;;;;;19.50;58.80;;;;;;5040845;28;19916;-75
2021/04/02 03:38:43;;;;;;;;;;;19.50;58.80;;;;;;5050497;28;19944;-76
2021/04/02 03:41:11;;;;;;;;;;;19.50;58.80;;;;;;5031406;28;20366;-75
2021/04/02 03:43:38;;;;;;;;;;;19.50;58.80;;;;;;5032861;28;19913;-75
2021/04/02 03:46:03;;;;;;;;;;;19.50;58.80;;;;;;5031131;28;19936;-75
2021/04/02 03:48:30;;;;;;;;;;;19.50;58.80;;;;;;5051384;28;19916;-75
2021/04/02 03:50:58;;;;;;;;;;;19.50;58.80;;;;;;5032129;28;19939;-75
2021/04/02 03:53:24;;;;;;;;;;;19.50;58.80;;;;;;5042394;28;20281;-75
2021/04/02 03:55:51;;;;;;;;;;;19.50;58.80;;;;;;5048549;28;19921;-75
2021/04/02 03:58:17;;;;;;;;;;;19.50;58.90;;;;;;5049093;28;20004;-76
2021/04/02 04:00:46;;;;;;;;;;;19.50;58.90;;;;;;5052526;28;20309;-76
2021/04/02 04:03:13;;;;;;;;;;;19.50;58.90;;;;;;5033891;28;20003;-76
2021/04/02 04:05:39;;;;;;;;;;;19.50;58.90;;;;;;5052886;28;19913;-77
2021/04/02 04:08:06;;;;;;;;;;;19.50;58.90;;;;;;5049378;28;19958;-77
2021/04/02 04:10:32;;;;;;;;;;;19.50;58.90;;;;;;5050598;28;19913;-78
2021/04/02 04:12:59;;;;;;;;;;;19.50;58.90;;;;;;5027557;28;19921;-76
2021/04/02 04:15:26;;;;;;;;;;;19.50;58.90;;;;;;5034148;28;19917;-76
2021/04/02 04:17:51;;;;;;;;;;;19.50;58.90;;;;;;5034554;28;19917;-77
2021/04/02 04:20:18;;;;;;;;;;;19.50;58.90;;;;;;5038850;28;19932;-77
2021/04/02 04:22:44;;;;;;;;;;;19.50;58.90;;;;;;5041954;28;19913;-77
2021/04/02 04:25:11;;;;;;;;;;;19.50;59.00;;;;;;5035779;28;19919;-76
2021/04/02 04:27:39;;;;;;;;;;;19.50;58.90;;;;;;5046399;28;20301;-76
2021/04/02 04:30:08;;;;;;;;;;;19.50;58.90;;;;;;5033814;28;19956;-77
2021/04/02 04:32:34;;;;;;;;;;;19.50;59.00;;;;;;5038881;28;19913;-78
2021/04/02 04:35:00;;;;;;;;;;;19.50;59.00;;;;;;5032811;28;20011;-77
2021/04/02 04:37:27;;;;;;;;;;;19.50;59.00;;;;;;5031740;28;19920;-76
2021/04/02 04:39:53;;;;;;;;;;;19.50;59.00;;;;;;5032929;28;20425;-77
2021/04/02 04:42:19;;;;;;;;;;;19.50;59.00;;;;;;5050248;28;19927;-76
2021/04/02 04:44:48;;;;;;;;;;;19.50;59.00;;;;;;5031230;28;20258;-79
2021/04/02 04:47:14;;;;;;;;;;;19.50;59.00;;;;;;5027221;28;20367;-76
2021/04/02 04:49:39;;;;;;;;;;;19.50;59.00;;;;;;5038540;28;19971;-76
2021/04/02 04:52:06;;;;;;;;;;;19.50;59.00;;;;;;5059662;28;19913;-77
2021/04/02 04:54:32;;;;;;;;;;;19.50;59.00;;;;;;5026615;28;19919;-78
2021/04/02 04:56:58;;;;;;;;;;;19.50;59.00;;;;;;5042568;28;20349;-76
2021/04/02 04:59:26;;;;;;;;;;;19.50;59.00;;;;;;5033732;28;19940;-77
2021/04/02 05:01:53;;;;;;;;;;;19.50;59.00;;;;;;5043105;28;19913;-78
2021/04/02 05:04:20;;;;;;;;;;;19.40;59.00;;;;;;5043742;28;19917;-76
2021/04/02 05:06:47;;;;;;;;;;;19.50;59.00;;;;;;5035381;28;19913;-76
2021/04/02 05:09:17;;;;;;;;;;;19.50;59.00;;;;;;5040929;28;20006;-76
2021/04/02 05:11:43;;;;;;;;;;;19.50;59.00;;;;;;5022624;28;20563;-77
2021/04/02 05:14:09;;;;;;;;;;;19.50;59.00;;;;;;5030592;28;19920;-78
2021/04/02 05:16:35;;;;;;;;;;;19.50;59.00;;;;;;5049087;28;19968;-76
2021/04/02 05:19:01;;;;;;;;;;;19.50;59.00;;;;;;5028800;28;19923;-77
2021/04/02 05:21:27;;;;;;;;;;;19.50;59.00;;;;;;5049513;28;19913;-76
2021/04/02 05:23:52;;;;;;;;;;;19.50;59.00;;;;;;5054672;28;20266;-76
2021/04/02 05:26:19;;;;;;;;;;;19.50;59.00;;;;;;5031522;28;20376;-77
2021/04/02 05:28:46;;;;;;;;;;;19.50;59.00;;;;;;5037368;28;19920;-76
2021/04/02 05:31:12;;;;;;;;;;;19.50;59.00;;;;;;5050993;28;20359;-76
2021/04/02 05:33:42;;;;;;;;;;;19.50;58.90;;;;;;5052211;28;19912;-76
2021/04/02 05:36:08;;;;;;;;;;;19.50;58.90;;;;;;5034593;28;19963;-76
2021/04/02 05:38:33;;;;;;;;;;;19.50;58.90;;;;;;5034026;28;19928;-76
2021/04/02 05:41:09;;;;;;;;;;;19.50;58.90;;;;;;5049304;28;19928;-76
2021/04/02 05:44:01;;;;;;;;;;;19.50;58.90;;;;;;5026848;28;19921;-77
2021/04/02 05:46:26;;;;;;;;;;;19.50;58.90;;;;;;5022054;28;20290;-76
2021/04/02 05:48:57;;;;;;;;;;;19.50;58.90;;;;;;5050248;28;19912;-76
2021/04/02 05:51:23;;;;;;;;;;;19.50;58.80;;;;;;5044433;28;19912;-76
2021/04/02 05:53:48;;;;;;;;;;;19.50;58.80;;;;;;5039632;28;19936;-77
2021/04/02 05:56:14;;;;;;;;;;;19.50;58.80;;;;;;5049900;28;20362;-76
2021/04/02 05:58:40;;;;;;;;;;;19.50;58.80;;;;;;5039952;28;19928;-77
2021/04/02 06:01:05;;;;;;;;;;;19.60;58.80;;;;;;5047035;28;19923;-76
2021/04/02 06:03:31;;;;;;;;;;;19.60;58.80;;;;;;5021298;28;19950;-76
2021/04/02 06:05:57;;;;;;;;;;;19.60;58.80;;;;;;5052058;28;19920;-76
2021/04/02 06:08:22;;;;;;;;;;;19.60;58.80;;;;;;5048778;28;19917;-77
2021/04/02 06:10:48;;;;;;;;;;;19.50;58.70;;;;;;5049854;28;19913;-77
2021/04/02 06:13:13;;;;;;;;;;;19.60;58.70;;;;;;5051580;28;19952;-76
2021/04/02 06:15:39;;;;;;;;;;;19.60;58.70;;;;;;5045629;28;19921;-77
2021/04/02 06:18:07;;;;;;;;;;;19.60;58.70;;;;;;5052482;28;19918;-76
2021/04/02 06:20:34;;;;;;;;;;;19.60;58.70;;;;;;5041185;28;19913;-76
2021/04/02 06:23:03;;;;;;;;;;;19.60;58.60;;;;;;5032969;28;19943;-77
2021/04/02 06:25:29;;;;;;;;;;;19.60;58.60;;;;;;5050740;28;19913;-76
2021/04/02 06:27:54;;;;;;;;;;;19.60;58.60;;;;;;5031886;28;19966;-76
2021/04/02 06:30:24;;;;;;;;;;;19.60;58.60;;;;;;5030184;28;19919;-77
2021/04/02 06:32:51;;;;;;;;;;;19.60;58.60;;;;;;5052520;28;19924;-76
2021/04/02 06:35:17;;;;;;;;;;;19.70;58.60;;;;;;5037932;28;19948;-77
2021/04/02 06:37:43;;;;;;;;;;;19.60;58.50;;;;;;5037005;28;19960;-76
2021/04/02 06:40:15;;;;;;;;;;;19.60;58.50;;;;;;5042105;28;19978;-76
2021/04/02 06:42:42;;;;;;;;;;;19.60;58.50;;;;;;5032908;28;19955;-77
2021/04/02 06:45:08;;;;;;;;;;;19.70;58.50;;;;;;5019952;28;20323;-77
2021/04/02 06:47:37;;;;;;;;;;;19.70;58.40;;;;;;5027253;28;20012;-76
2021/04/02 06:50:23;;;;;;;;;;;19.70;58.40;;;;;;5043132;28;19920;-76
2021/04/02 06:52:50;;;;;;;;;;;19.70;58.40;;;;;;5046760;28;19912;-77
2021/04/02 06:55:20;;;;;;;;;;;19.70;58.40;;;;;;5036606;28;20336;-77
2021/04/02 06:57:47;;;;;;;;;;;19.70;58.30;;;;;;5053767;28;19948;-80
2021/04/02 07:00:18;;;;;;;;;;;19.70;58.30;;;;;;5026750;28;20440;-76
2021/04/02 07:02:45;;;;;;;;;;;19.70;58.30;;;;;;5028230;28;19952;-76
2021/04/02 07:05:11;;;;;;;;;;;19.70;58.30;;;;;;5051269;28;19952;-76
2021/04/02 07:07:38;;;;;;;;;;;19.70;58.30;;;;;;5036313;28;19913;-76
2021/04/02 07:10:05;;;;;;;;;;;19.70;58.30;;;;;;5039405;28;20035;-76
2021/04/02 07:12:32;;;;;;;;;;;19.70;58.40;;;;;;5043705;28;19913;-76
2021/04/02 07:14:58;;;;;;;;;;;19.70;58.40;;;;;;5031238;28;20660;-76
2021/04/02 07:17:26;;;;;;;;;;;19.70;58.40;;;;;;5024792;28;19917;-77
2021/04/02 07:19:53;;;;;;;;;;;19.70;58.30;;;;;;5038222;28;19998;-76
2021/04/02 07:22:18;;;;;;;;;;;19.70;58.30;;;;;;5042625;28;19914;-76
2021/04/02 07:24:44;;;;;;;;;;;19.70;58.20;;;;;;5033649;28;19918;-76
2021/04/02 07:27:10;;;;;;;;;;;19.70;58.20;;;;;;5054023;28;19917;-76
2021/04/02 07:29:36;;;;;;;;;;;19.70;58.20;;;;;;5064290;28;20412;-76
2021/04/02 07:32:02;;;;;;;;;;;19.70;58.20;;;;;;5045156;28;20416;-77
2021/04/02 07:34:28;;;;;;;;;;;19.70;58.20;;;;;;5046298;28;19965;-76
2021/04/02 07:36:54;;;;;;;;;;;19.70;58.20;;;;;;5041232;28;19924;-77
2021/04/02 07:39:20;;;;;;;;;;;19.70;58.20;;;;;;5020236;28;19921;-77
2021/04/02 07:41:52;;;;;;;;;;;19.70;58.20;;;;;;5027136;28;19928;-76
2021/04/02 07:44:19;;;;;;;;;;;19.70;58.30;;;;;;5021682;28;19913;-76
2021/04/02 07:47:11;;;;;;;;;;;19.70;58.30;;;;;;5031438;28;19917;-76
2021/04/02 07:49:49;;;;;;;;;;;19.70;58.40;;;;;;5029371;28;19913;-76
2021/04/02 07:52:18;;;;;;;;;;;19.70;58.40;;;;;;5047312;28;19921;-76
2021/04/02 07:54:44;;;;;;;;;;;19.70;58.40;;;;;;5026701;28;19948;-77
2021/04/02 07:57:09;;;;;;;;;;;19.70;58.40;;;;;;5024672;28;20367;-76
2021/04/02 07:59:41;;;;;;;;;;;19.70;58.40;;;;;;5030187;28;19925;-76
2021/04/02 08:02:09;;;;;;;;;;;19.70;58.30;;;;;;5022507;28;20415;-76
2021/04/02 08:04:39;;;;;;;;;;;19.70;58.30;;;;;;5029066;28;19921;-75
2021/04/02 08:07:15;;;;;;;;;;;19.70;58.20;;;;;;5031879;28;19913;-75
2021/04/02 08:09:50;;;;;;;;;;;19.80;58.20;;;;;;5031434;28;20280;-77
2021/04/02 08:12:16;;;;;;;;;;;19.80;58.10;;;;;;5059870;28;20067;-75
2021/04/02 08:14:46;;;;;;;;;;;19.80;58.10;;;;;;5032337;28;20421;-76
2021/04/02 08:17:13;;;;;;;;;;;19.80;58.10;;;;;;5028756;28;19924;-76
2021/04/02 08:19:39;;;;;;;;;;;19.80;58.00;;;;;;5021234;28;19917;-75
2021/04/02 08:22:09;;;;;;;;;;;19.80;58.00;;;;;;5017760;28;19914;-75
2021/04/02 08:24:48;;;;;;;;;;;19.80;58.00;;;;;;5030364;28;19913;-76
2021/04/02 08:27:14;;;;;;;;;;;19.80;58.00;;;;;;5014766;28;19997;-76
2021/04/02 08:29:40;;;;;;;;;;;19.80;58.00;;;;;;5031605;28;20008;-75
2021/04/02 08:32:07;;;;;;;;;;;19.80;57.90;;;;;;5029479;28;19918;-75
2021/04/02 08:34:33;;;;;;;;;;;19.80;57.90;;;;;;5030318;28;20003;-75
2021/04/02 08:37:00;;;;;;;;;;;19.80;57.90;;;;;;5031137;28;20025;-75
2021/04/02 08:39:26;;;;;;;;;;;19.80;57.90;;;;;;5031901;28;19928;-75
2021/04/02 08:42:05;;;;;;;;;;;19.80;57.90;;;;;;5026173;28;19922;-76
2021/04/02 08:44:40;;;;;;;;;;;19.80;57.90;;;;;;5026892;28;20023;-76
2021/04/02 08:47:07;;;;;;;;;;;19.80;57.90;;;;;;5018913;28;19917;-75
2021/04/02 08:49:36;;;;;;;;;;;19.80;57.90;;;;;;5018457;28;20398;-76
2021/04/02 08:52:05;;;;;;;;;;;19.80;57.90;;;;;;5026673;28;19914;-75
2021/04/02 08:54:30;;;;;;;;;;;19.80;57.90;;;;;;5030415;28;19925;-75
2021/04/02 08:56:56;;;;;;;;;;;19.80;57.90;;;;;;5025202;28;19917;-75
2021/04/02 08:59:22;;;;;;;;;;;19.80;57.90;;;;;;5028378;28;19957;-75
2021/04/02 09:01:48;;;;;;;;;;;19.80;57.90;;;;;;5020502;28;19960;-75
2021/04/02 09:04:15;;;;;;;;;;;19.80;57.90;;;;;;5017074;28;19913;-75
2021/04/02 09:06:41;;;;;;;;;;;19.80;57.80;;;;;;5026737;28;19921;-75
2021/04/02 09:09:17;;;;;;;;;;;19.80;57.80;;;;;;5031440;28;19956;-75
2021/04/02 09:11:43;;;;;;;;;;;19.80;57.80;;;;;;5022963;28;19921;-75
2021/04/02 09:14:10;;;;;;;;;;;19.80;57.80;;;;;;5030523;28;20004;-75
2021/04/02 09:16:36;;;;;;;;;;;19.90;57.80;;;;;;5030877;28;19917;-75
2021/04/02 09:19:02;;;;;;;;;;;19.80;57.80;;;;;;5026733;28;19940;-74
2021/04/02 09:21:28;;;;;;;;;;;19.80;57.70;;;;;;5023532;28;20348;-74
2021/04/02 09:23:54;;;;;;;;;;;19.90;57.70;;;;;;5026462;28;20378;-75
2021/04/02 09:26:20;;;;;;;;;;;19.90;57.60;;;;;;5025831;28;19972;-74
2021/04/02 09:28:46;;;;;;;;;;;19.90;57.60;;;;;;5028344;28;19913;-76
2021/04/02 09:31:25;;;;;;;;;;;19.90;57.60;;;;;;5029778;28;19913;-75
2021/04/02 09:33:56;;;;;;;;;;;19.90;57.50;;;;;;5035979;28;20367;-75
2021/04/02 09:36:23;;;;;;;;;;;20.00;57.50;;;;;;5013146;28;19940;-74
2021/04/02 09:38:49;;;;;;;;;;;20.00;57.40;;;;;;5018754;28;19925;-74
2021/04/02 09:41:20;;;;;;;;;;;20.00;57.50;;;;;;5028790;28;19980;-75
2021/04/02 09:43:47;;;;;;;;;;;20.00;57.50;;;;;;5032626;28;20346;-77
2021/04/02 09:46:33;;;;;;;;;;;19.90;57.50;;;;;;5045961;28;19916;-75
2021/04/02 09:49:04;;;;;;;;;;;20.00;57.40;;;;;;5040073;28;19913;-75
2021/04/02 09:51:33;;;;;;;;;;;20.00;57.30;;;;;;5040778;28;19940;-75
2021/04/02 09:53:59;;;;;;;;;;;20.10;57.30;;;;;;5047556;28;19913;-75
2021/04/02 09:56:25;;;;;;;;;;;20.10;57.10;;;;;;5066121;28;19920;-74
2021/04/02 09:58:51;;;;;;;;;;;20.10;57.10;;;;;;5042079;28;19921;-76
2021/04/02 10:01:16;;;;;;;;;;;20.10;57.00;;;;;;5062544;28;19921;-74
2021/04/02 10:03:42;;;;;;;;;;;20.10;57.00;;;;;;5051001;28;19999;-75
2021/04/02 10:06:07;;;;;;;;;;;20.10;57.00;;;;;;5041522;28;20389;-74
2021/04/02 10:08:38;;;;;;;;;;;20.20;56.90;;;;;;5059115;28;19916;-75
2021/04/02 10:11:03;;;;;;;;;;;20.10;56.90;;;;;;5030375;28;19920;-74
2021/04/02 10:13:29;;;;;;;;;;;20.20;57.00;;;;;;5038328;28;19917;-74
2021/04/02 10:15:55;;;;;;;;;;;20.10;56.90;;;;;;5045884;28;19921;-74
2021/04/02 10:18:21;;;;;;;;;;;20.10;56.80;;;;;;5065607;28;19942;-75
2021/04/02 10:20:47;;;;;;;;;;;20.20;56.80;;;;;;5030637;28;20007;-74
2021/04/02 10:23:13;;;;;;;;;;;20.20;56.70;;;;;;5022269;28;20359;-74
2021/04/02 10:25:41;;;;;;;;;;;20.20;56.70;;;;;;5028767;28;19917;-74
2021/04/02 10:28:07;;;;;;;;;;;20.20;56.70;;;;;;5068828;28;19913;-74
2021/04/02 10:30:32;;;;;;;;;;;20.30;56.70;;;;;;5052061;28;19967;-75
2021/04/02 10:33:01;;;;;;;;;;;20.20;56.70;;;;;;5053473;28;20295;-74
2021/04/02 10:35:33;;;;;;;;;;;20.20;56.70;;;;;;5063683;28;19919;-74
2021/04/02 10:38:04;;;;;;;;;;;20.20;56.70;;;;;;5042647;28;19918;-74
2021/04/02 10:40:34;;;;;;;;;;;20.20;56.60;;;;;;5033442;28;19913;-74
2021/04/02 10:43:00;;;;;;;;;;;20.30;56.70;;;;;;5030121;28;19948;-74
2021/04/02 10:45:26;;;;;;;;;;;20.20;56.70;;;;;;5029176;28;20354;-75
2021/04/02 10:47:51;;;;;;;;;;;20.20;56.80;;;;;;5036490;28;19920;-75
2021/04/02 10:50:17;;;;;;;;;;;20.20;56.80;;;;;;5068723;28;19921;-75
2021/04/02 10:52:43;;;;;;;;;;;20.20;56.90;;;;;;5036655;28;19919;-76
2021/04/02 10:55:11;;;;;;;;;;;20.20;56.80;;;;;;5055555;28;20362;-74
2021/04/02 10:57:36;;;;;;;;;;;20.20;56.80;;;;;;5052692;28;19917;-75
2021/04/02 11:00:04;;;;;;;;;;;20.30;56.70;;;;;;5046430;28;19924;-75
2021/04/02 11:02:29;;;;;;;;;;;20.30;56.60;;;;;;5041995;28;19912;-74
2021/04/02 11:04:55;;;;;;;;;;;20.30;56.60;;;;;;5035736;28;19912;-74
2021/04/02 11:07:20;;;;;;;;;;;20.30;56.60;;;;;;5034054;28;19916;-74
2021/04/02 11:09:46;;;;;;;;;;;20.30;56.50;;;;;;5051954;28;20232;-75
2021/04/02 11:12:11;;;;;;;;;;;20.30;56.50;;;;;;5036014;28;20274;-75
2021/04/02 11:14:38;;;;;;;;;;;20.30;56.50;;;;;;5051472;28;19920;-74
2021/04/02 11:17:09;;;;;;;;;;;20.30;56.50;;;;;;5031719;28;19917;-75
2021/04/02 11:19:35;;;;;;;;;;;20.30;56.50;;;;;;5033308;28;20282;-75
2021/04/02 11:22:05;;;;;;;;;;;20.30;56.50;;;;;;5049449;28;19913;-75
2021/04/02 11:24:37;;;;;;;;;;;20.30;56.40;;;;;;5047720;28;19920;-76
2021/04/02 11:27:03;;;;;;;;;;;20.30;56.50;;;;;;5052186;28;19944;-74
2021/04/02 11:29:35;;;;;;;;;;;20.30;56.40;;;;;;5035975;28;19944;-75
2021/04/02 11:32:01;;;;;;;;;;;20.30;56.30;;;;;;5050656;28;20401;-75
2021/04/02 11:34:32;;;;;;;;;;;20.40;56.20;;;;;;5050072;28;19913;-74
2021/04/02 11:36:58;;;;;;;;;;;20.40;56.10;;;;;;5036042;28;20370;-74
2021/04/02 11:39:23;;;;;;;;;;;20.40;56.00;;;;;;5051665;28;19917;-75
2021/04/02 11:41:49;;;;;;;;;;;20.40;56.00;;;;;;5034315;28;19921;-74
2021/04/02 11:44:15;;;;;;;;;;;20.40;56.10;;;;;;5050305;28;19912;-74
2021/04/02 11:46:40;;;;;;;;;;;20.40;56.00;;;;;;5036605;28;19913;-75
2021/04/02 11:49:06;;;;;;;;;;;20.40;56.00;;;;;;5024610;28;19927;-74
2021/04/02 11:51:37;;;;;;;;;;;20.40;56.00;;;;;;5035712;28;19920;-76
2021/04/02 11:54:05;;;;;;;;;;;20.40;56.00;;;;;;5025681;28;19913;-75
2021/04/02 11:56:31;;;;;;;;;;;20.40;56.10;;;;;;5034526;28;19921;-75
2021/04/02 11:58:56;;;;;;;;;;;20.40;56.10;;;;;;5062623;28;20015;-75
2021/04/02 12:01:22;;;;;;;;;;;20.40;56.20;;;;;;5035568;28;19984;-74
2021/04/02 12:03:48;;;;;;;;;;;20.40;56.20;;;;;;5047542;28;20032;-75
2021/04/02 12:06:13;;;;;;;;;;;20.30;56.20;;;;;;5035611;28;19963;-75
2021/04/02 12:08:46;;;;;;;;;;;20.30;56.30;;;;;;5048341;28;20401;-75
2021/04/02 12:11:12;;;;;;;;;;;20.30;56.40;;;;;;5033512;28;19986;-75
2021/04/02 12:13:37;;;;;;;;;;;20.30;56.50;;;;;;5029148;28;19939;-74
2021/04/02 12:16:17;;;;;;;;;;;20.30;56.50;;;;;;5051023;28;20371;-74
2021/04/02 12:18:43;;;;;;;;;;;20.30;56.50;;;;;;5034148;28;20003;-75
2021/04/02 12:21:09;;;;;;;;;;;20.30;56.60;;;;;;5048486;28;19966;-74
2021/04/02 12:23:40;;;;;;;;;;;20.30;56.50;;;;;;5056855;28;19917;-75
2021/04/02 12:26:06;;;;;;;;;;;20.30;56.50;;;;;;5049889;28;19917;-75
2021/04/02 12:28:32;;;;;;;;;;;20.30;56.40;;;;;;5032379;28;19987;-74
2021/04/02 12:30:59;;;;;;;;;;;20.30;56.30;;;;;;5046370;28;19913;-75
2021/04/02 12:33:28;;;;;;;;;;;20.40;56.30;;;;;;5046006;28;19913;-74
2021/04/02 12:35:54;;;;;;;;;;;20.30;56.30;;;;;;5033589;28;19917;-74
2021/04/02 12:38:32;;;;;;;;;;;20.40;56.20;;;;;;5034821;28;19928;-74
2021/04/02 12:41:01;;;;;;;;;;;20.30;56.20;;;;;;5039634;28;19995;-74
2021/04/02 12:43:26;;;;;;;;;;;20.30;56.30;;;;;;5038499;28;20298;-75
2021/04/02 12:45:52;;;;;;;;;;;20.30;56.50;;;;;;5044565;28;19913;-75
2021/04/02 12:48:26;;;;;;;;;;;20.30;56.60;;;;;;5041144;28;19917;-75
2021/04/02 12:50:56;;;;;;;;;;;20.20;56.70;;;;;;5034881;28;19966;-75
2021/04/02 12:53:26;;;;;;;;;;;20.20;56.80;;;;;;5018485;28;19920;-75
2021/04/02 12:55:53;;;;;;;;;;;20.20;56.80;;;;;;5038843;28;19921;-74
2021/04/02 12:58:22;;;;;;;;;;;20.20;56.80;;;;;;5030809;28;19921;-75
2021/04/02 13:00:47;;;;;;;;;;;20.20;56.80;;;;;;5030567;28;19936;-75
2021/04/02 13:03:16;;;;;;;;;;;20.30;56.70;;;;;;5049101;28;20293;-75
2021/04/02 13:05:41;;;;;;;;;;;20.30;56.70;;;;;;5047998;28;20388;-74
2021/04/02 13:08:10;;;;;;;;;;;20.30;56.60;;;;;;5025924;28;19913;-74
2021/04/02 13:10:35;;;;;;;;;;;20.30;56.50;;;;;;5061770;28;20267;-75
2021/04/02 13:13:06;;;;;;;;;;;20.30;56.60;;;;;;5032106;28;20004;-75
2021/04/02 13:15:32;;;;;;;;;;;20.30;56.70;;;;;;5056671;28;19912;-75
2021/04/02 13:17:57;;;;;;;;;;;20.30;56.70;;;;;;5044382;28;20393;-74
2021/04/02 13:20:24;;;;;;;;;;;20.20;56.80;;;;;;5048403;28;19951;-75
2021/04/02 13:22:50;;;;;;;;;;;20.20;56.80;;;;;;5032849;28;19940;-74
2021/04/02 13:25:16;;;;;;;;;;;20.20;56.90;;;;;;5033160;28;20355;-75
2021/04/02 13:27:42;;;;;;;;;;;20.20;56.90;;;;;;5051206;28;19995;-74
2021/04/02 13:30:09;;;;;;;;;;;20.10;56.90;;;;;;5051240;28;19913;-75
2021/04/02 13:32:39;;;;;;;;;;;20.20;57.00;;;;;;5031880;28;19913;-74
2021/04/02 13:35:16;;;;;;;;;;;20.20;57.00;;;;;;5051019;28;19920;-74
2021/04/02 13:37:42;;;;;;;;;;;20.20;57.00;;;;;;5048767;28;20023;-77
2021/04/02 13:40:12;;;;;;;;;;;20.20;56.90;;;;;;5028770;28;20003;-75
2021/04/02 13:42:38;;;;;;;;;;;20.20;57.00;;;;;;5045232;28;19920;-75
2021/04/02 13:45:05;;;;;;;;;;;20.10;57.00;;;;;;5051781;28;19920;-77
2021/04/02 13:47:40;;;;;;;;;;;20.20;57.00;;;;;;5033601;28;19920;-76
2021/04/02 13:50:17;;;;;;;;;;;20.20;57.00;;;;;;5031263;28;20337;-76
2021/04/02 13:52:43;;;;;;;;;;;20.10;57.00;;;;;;5047010;28;19917;-77
2021/04/02 13:55:15;;;;;;;;;;;20.20;57.00;;;;;;5033492;28;20024;-77
2021/04/02 13:57:41;;;;;;;;;;;20.20;56.90;;;;;;5046243;28;19925;-78
2021/04/02 14:00:11;;;;;;;;;;;20.30;56.90;;;;;;5040996;28;20286;-77
2021/04/02 14:02:38;;;;;;;;;;;20.20;56.90;;;;;;5051335;28;20029;-77
2021/04/02 14:05:04;;;;;;;;;;;20.20;56.90;;;;;;5059396;28;20016;-77
2021/04/02 14:07:29;;;;;;;;;;;20.20;56.90;;;;;;5056225;28;19920;-77
2021/04/02 14:10:00;;;;;;;;;;;20.20;57.00;;;;;;5056186;28;19917;-77
2021/04/02 14:12:27;;;;;;;;;;;20.20;57.00;;;;;;5038577;28;19939;-77
2021/04/02 14:14:52;;;;;;;;;;;20.10;57.00;;;;;;5038807;28;19913;-77
2021/04/02 14:17:19;;;;;;;;;;;20.10;57.10;;;;;;5062309;28;20291;-77